sensor_id;sensor_type;location;lat;lon;timestamp;temperature;humidity
68943;DHT22;60852;52.190;4.422;2023-04-06T00:01:31;8.26;61.98
68943;DHT22;60852;52.190;4.422;2023-04-06T00:03:56;8.21;61.57
68943;DHT22;60852;52.190;4.422;2023-04-06T00:06:22;8.14;61.08
68943;DHT22;60852;52.190;4.422;2023-04-06T00:08:47;8.12;60.99
68943;DHT22;60852;52.190;4.422;2023-04-06T00:11:13;8.14;60.71
68943;DHT22;60852;52.190;4.422;2023-04-06T00:13:38;8.15;60.24
68943;DHT22;60852;52.190;4.422;2023-04-06T00:16:04;8.14;60.16
68943;DHT22;60852;52.190;4.422;2023-04-06T00:18:31;8.12;59.84
68943;DHT22;60852;52.190;4.422;2023-04-06T00:20:56;8.15;59.53
68943;DHT22;60852;52.190;4.422;2023-04-06T00:23:22;8.18;59.11
68943;DHT22;60852;52.190;4.422;2023-04-06T00:25:47;8.14;59.31
68943;DHT22;60852;52.190;4.422;2023-04-06T00:28:13;8.16;58.69
68943;DHT22;60852;52.190;4.422;2023-04-06T00:30:38;8.21;59.09
68943;DHT22;60852;52.190;4.422;2023-04-06T00:33:03;8.16;58.87
68943;DHT22;60852;52.190;4.422;2023-04-06T00:35:29;8.14;58.64
68943;DHT22;60852;52.190;4.422;2023-04-06T00:37:55;8.14;58.59
68943;DHT22;60852;52.190;4.422;2023-04-06T00:40:20;8.15;58.54
68943;DHT22;60852;52.190;4.422;2023-04-06T00:42:46;8.14;58.30
68943;DHT22;60852;52.190;4.422;2023-04-06T00:45:11;8.14;58.18
68943;DHT22;60852;52.190;4.422;2023-04-06T00:47:37;8.09;58.32
68943;DHT22;60852;52.190;4.422;2023-04-06T00:50:03;8.11;57.88
68943;DHT22;60852;52.190;4.422;2023-04-06T00:52:28;8.08;57.79
68943;DHT22;60852;52.190;4.422;2023-04-06T00:54:54;8.02;57.64
68943;DHT22;60852;52.190;4.422;2023-04-06T00:57:19;8.08;57.87
68943;DHT22;60852;52.190;4.422;2023-04-06T00:59:45;8.08;58.00
68943;DHT22;60852;52.190;4.422;2023-04-06T01:02:11;8.06;57.87
68943;DHT22;60852;52.190;4.422;2023-04-06T01:04:37;8.08;57.64
68943;DHT22;60852;52.190;4.422;2023-04-06T01:07:02;8.08;57.96
68943;DHT22;60852;52.190;4.422;2023-04-06T01:09:28;8.11;57.32
68943;DHT22;60852;52.190;4.422;2023-04-06T01:11:56;8.15;57.38
68943;DHT22;60852;52.190;4.422;2023-04-06T01:14:22;8.20;57.18
68943;DHT22;60852;52.190;4.422;2023-04-06T01:16:48;8.21;57.01
68943;DHT22;60852;52.190;4.422;2023-04-06T01:19:13;8.21;56.77
68943;DHT22;60852;52.190;4.422;2023-04-06T01:21:40;8.21;56.94
68943;DHT22;60852;52.190;4.422;2023-04-06T01:24:07;8.22;56.98
68943;DHT22;60852;52.190;4.422;2023-04-06T01:26:33;8.22;56.88
68943;DHT22;60852;52.190;4.422;2023-04-06T01:28:59;8.26;56.62
68943;DHT22;60852;52.190;4.422;2023-04-06T01:31:25;8.25;56.76
68943;DHT22;60852;52.190;4.422;2023-04-06T01:33:51;8.26;56.61
68943;DHT22;60852;52.190;4.422;2023-04-06T01:36:17;8.28;56.85
68943;DHT22;60852;52.190;4.422;2023-04-06T01:38:42;8.29;56.21
68943;DHT22;60852;52.190;4.422;2023-04-06T01:41:08;8.29;56.70
68943;DHT22;60852;52.190;4.422;2023-04-06T01:43:34;8.35;56.31
68943;DHT22;60852;52.190;4.422;2023-04-06T01:46:00;8.35;56.02
68943;DHT22;60852;52.190;4.422;2023-04-06T01:48:26;8.35;56.29
68943;DHT22;60852;52.190;4.422;2023-04-06T01:50:53;8.39;56.41
68943;DHT22;60852;52.190;4.422;2023-04-06T01:53:18;8.42;56.37
68943;DHT22;60852;52.190;4.422;2023-04-06T01:55:44;8.45;55.76
68943;DHT22;60852;52.190;4.422;2023-04-06T01:58:09;8.39;55.96
68943;DHT22;60852;52.190;4.422;2023-04-06T02:00:35;8.38;55.93
68943;DHT22;60852;52.190;4.422;2023-04-06T02:03:01;8.34;55.47
68943;DHT22;60852;52.190;4.422;2023-04-06T02:05:28;8.34;56.09
68943;DHT22;60852;52.190;4.422;2023-04-06T02:07:54;8.31;56.39
68943;DHT22;60852;52.190;4.422;2023-04-06T02:10:19;8.31;56.19
68943;DHT22;60852;52.190;4.422;2023-04-06T02:12:45;8.28;56.08
68943;DHT22;60852;52.190;4.422;2023-04-06T02:15:11;8.29;56.45
68943;DHT22;60852;52.190;4.422;2023-04-06T02:17:38;8.29;56.62
68943;DHT22;60852;52.190;4.422;2023-04-06T02:20:05;8.34;56.84
68943;DHT22;60852;52.190;4.422;2023-04-06T02:22:31;8.39;56.18
68943;DHT22;60852;52.190;4.422;2023-04-06T02:24:56;8.38;56.34
68943;DHT22;60852;52.190;4.422;2023-04-06T02:27:21;8.34;56.45
68943;DHT22;60852;52.190;4.422;2023-04-06T02:29:47;8.32;56.63
68943;DHT22;60852;52.190;4.422;2023-04-06T02:32:12;8.31;56.52
68943;DHT22;60852;52.190;4.422;2023-04-06T02:34:38;8.29;57.04
68943;DHT22;60852;52.190;4.422;2023-04-06T02:37:04;8.32;57.10
68943;DHT22;60852;52.190;4.422;2023-04-06T02:39:30;8.31;56.68
68943;DHT22;60852;52.190;4.422;2023-04-06T02:41:55;8.36;57.02
68943;DHT22;60852;52.190;4.422;2023-04-06T02:44:22;8.36;56.44
68943;DHT22;60852;52.190;4.422;2023-04-06T02:46:47;8.32;56.53
68943;DHT22;60852;52.190;4.422;2023-04-06T02:49:13;8.31;56.82
68943;DHT22;60852;52.190;4.422;2023-04-06T02:51:38;8.38;56.89
68943;DHT22;60852;52.190;4.422;2023-04-06T02:54:03;8.35;57.08
68943;DHT22;60852;52.190;4.422;2023-04-06T02:56:29;8.35;57.19
68943;DHT22;60852;52.190;4.422;2023-04-06T02:58:54;8.35;57.19
68943;DHT22;60852;52.190;4.422;2023-04-06T03:01:20;8.36;57.20
68943;DHT22;60852;52.190;4.422;2023-04-06T03:03:45;8.35;57.41
68943;DHT22;60852;52.190;4.422;2023-04-06T03:06:11;8.36;57.77
68943;DHT22;60852;52.190;4.422;2023-04-06T03:08:36;8.34;57.60
68943;DHT22;60852;52.190;4.422;2023-04-06T03:11:02;8.35;57.90
68943;DHT22;60852;52.190;4.422;2023-04-06T03:13:27;8.32;57.80
68943;DHT22;60852;52.190;4.422;2023-04-06T03:15:52;8.31;57.96
68943;DHT22;60852;52.190;4.422;2023-04-06T03:18:22;8.34;58.03
68943;DHT22;60852;52.190;4.422;2023-04-06T03:20:50;8.36;57.74
68943;DHT22;60852;52.190;4.422;2023-04-06T03:23:16;8.31;57.69
68943;DHT22;60852;52.190;4.422;2023-04-06T03:25:41;8.28;57.71
68943;DHT22;60852;52.190;4.422;2023-04-06T03:28:07;8.26;58.37
68943;DHT22;60852;52.190;4.422;2023-04-06T03:30:34;8.24;58.27
68943;DHT22;60852;52.190;4.422;2023-04-06T03:33:00;8.24;58.27
68943;DHT22;60852;52.190;4.422;2023-04-06T03:35:25;8.25;58.34
68943;DHT22;60852;52.190;4.422;2023-04-06T03:37:50;8.25;58.65
68943;DHT22;60852;52.190;4.422;2023-04-06T03:40:16;8.25;58.50
68943;DHT22;60852;52.190;4.422;2023-04-06T03:42:41;8.28;58.56
68943;DHT22;60852;52.190;4.422;2023-04-06T03:45:07;8.25;58.67
68943;DHT22;60852;52.190;4.422;2023-04-06T03:47:33;8.31;58.72
68943;DHT22;60852;52.190;4.422;2023-04-06T03:49:58;8.29;58.76
68943;DHT22;60852;52.190;4.422;2023-04-06T03:52:24;8.29;58.78
68943;DHT22;60852;52.190;4.422;2023-04-06T03:54:49;8.35;58.87
68943;DHT22;60852;52.190;4.422;2023-04-06T03:57:15;8.36;58.97
68943;DHT22;60852;52.190;4.422;2023-04-06T03:59:40;8.32;59.18
68943;DHT22;60852;52.190;4.422;2023-04-06T04:02:06;8.26;59.19
68943;DHT22;60852;52.190;4.422;2023-04-06T04:04:31;8.24;59.57
68943;DHT22;60852;52.190;4.422;2023-04-06T04:06:57;8.25;59.43
68943;DHT22;60852;52.190;4.422;2023-04-06T04:09:22;8.21;59.58
68943;DHT22;60852;52.190;4.422;2023-04-06T04:11:48;8.20;59.86
68943;DHT22;60852;52.190;4.422;2023-04-06T04:14:13;8.18;60.09
68943;DHT22;60852;52.190;4.422;2023-04-06T04:16:39;8.22;60.31
68943;DHT22;60852;52.190;4.422;2023-04-06T04:19:06;8.22;60.20
68943;DHT22;60852;52.190;4.422;2023-04-06T04:21:32;8.21;60.34
68943;DHT22;60852;52.190;4.422;2023-04-06T04:23:57;8.18;60.58
68943;DHT22;60852;52.190;4.422;2023-04-06T04:26:23;8.20;60.79
68943;DHT22;60852;52.190;4.422;2023-04-06T04:28:48;8.20;60.88
68943;DHT22;60852;52.190;4.422;2023-04-06T04:31:14;8.21;61.08
68943;DHT22;60852;52.190;4.422;2023-04-06T04:33:39;8.16;61.26
68943;DHT22;60852;52.190;4.422;2023-04-06T04:36:05;8.18;61.48
68943;DHT22;60852;52.190;4.422;2023-04-06T04:38:30;8.18;61.54
68943;DHT22;60852;52.190;4.422;2023-04-06T04:40:56;8.16;61.67
68943;DHT22;60852;52.190;4.422;2023-04-06T04:43:21;8.16;62.01
68943;DHT22;60852;52.190;4.422;2023-04-06T04:45:47;8.14;62.13
68943;DHT22;60852;52.190;4.422;2023-04-06T04:48:12;8.15;62.31
68943;DHT22;60852;52.190;4.422;2023-04-06T04:50:38;8.16;62.39
68943;DHT22;60852;52.190;4.422;2023-04-06T04:53:03;8.15;62.61
68943;DHT22;60852;52.190;4.422;2023-04-06T04:55:31;8.20;62.83
68943;DHT22;60852;52.190;4.422;2023-04-06T04:57:57;8.18;62.92
68943;DHT22;60852;52.190;4.422;2023-04-06T05:00:22;8.18;62.95
68943;DHT22;60852;52.190;4.422;2023-04-06T05:02:48;8.18;63.13
68943;DHT22;60852;52.190;4.422;2023-04-06T05:05:13;8.12;63.54
68943;DHT22;60852;52.190;4.422;2023-04-06T05:07:39;8.12;63.62
68943;DHT22;60852;52.190;4.422;2023-04-06T05:10:05;8.16;63.63
68943;DHT22;60852;52.190;4.422;2023-04-06T05:12:30;8.16;63.71
68943;DHT22;60852;52.190;4.422;2023-04-06T05:14:56;8.16;63.87
68943;DHT22;60852;52.190;4.422;2023-04-06T05:17:21;8.22;63.76
68943;DHT22;60852;52.190;4.422;2023-04-06T05:19:47;8.21;63.86
68943;DHT22;60852;52.190;4.422;2023-04-06T05:22:13;8.28;63.78
68943;DHT22;60852;52.190;4.422;2023-04-06T05:24:43;8.28;63.80
68943;DHT22;60852;52.190;4.422;2023-04-06T05:27:08;8.29;63.74
68943;DHT22;60852;52.190;4.422;2023-04-06T05:29:33;8.29;63.88
68943;DHT22;60852;52.190;4.422;2023-04-06T05:31:59;8.31;63.92
68943;DHT22;60852;52.190;4.422;2023-04-06T05:34:25;8.34;64.04
68943;DHT22;60852;52.190;4.422;2023-04-06T05:36:50;8.38;64.02
68943;DHT22;60852;52.190;4.422;2023-04-06T05:39:16;8.41;63.88
68943;DHT22;60852;52.190;4.422;2023-04-06T05:41:41;8.42;63.88
68943;DHT22;60852;52.190;4.422;2023-04-06T05:44:07;8.42;63.96
68943;DHT22;60852;52.190;4.422;2023-04-06T05:46:32;8.43;64.05
68943;DHT22;60852;52.190;4.422;2023-04-06T05:48:57;8.43;64.21
68943;DHT22;60852;52.190;4.422;2023-04-06T05:51:23;8.53;64.16
68943;DHT22;60852;52.190;4.422;2023-04-06T05:53:48;8.53;64.14
68943;DHT22;60852;52.190;4.422;2023-04-06T05:56:14;8.56;63.97
68943;DHT22;60852;52.190;4.422;2023-04-06T05:58:40;8.56;64.04
68943;DHT22;60852;52.190;4.422;2023-04-06T06:01:05;8.57;64.08
68943;DHT22;60852;52.190;4.422;2023-04-06T06:03:31;8.59;64.22
68943;DHT22;60852;52.190;4.422;2023-04-06T06:06:04;8.63;64.23
68943;DHT22;60852;52.190;4.422;2023-04-06T06:08:30;8.69;64.22
68943;DHT22;60852;52.190;4.422;2023-04-06T06:10:56;8.67;64.24
68943;DHT22;60852;52.190;4.422;2023-04-06T06:13:22;8.70;64.42
68943;DHT22;60852;52.190;4.422;2023-04-06T06:15:48;8.76;64.34
68943;DHT22;60852;52.190;4.422;2023-04-06T06:18:14;8.79;64.34
68943;DHT22;60852;52.190;4.422;2023-04-06T06:20:39;8.81;64.39
68943;DHT22;60852;52.190;4.422;2023-04-06T06:23:05;8.84;64.45
68943;DHT22;60852;52.190;4.422;2023-04-06T06:25:30;8.81;64.58
68943;DHT22;60852;52.190;4.422;2023-04-06T06:27:56;8.84;64.77
68943;DHT22;60852;52.190;4.422;2023-04-06T06:30:22;8.84;65.22
68943;DHT22;60852;52.190;4.422;2023-04-06T06:32:48;8.85;65.64
68943;DHT22;60852;52.190;4.422;2023-04-06T06:35:13;8.91;66.04
68943;DHT22;60852;52.190;4.422;2023-04-06T06:37:39;8.91;66.10
68943;DHT22;60852;52.190;4.422;2023-04-06T06:40:05;9.00;66.32
68943;DHT22;60852;52.190;4.422;2023-04-06T06:42:31;8.99;66.43
68943;DHT22;60852;52.190;4.422;2023-04-06T06:44:56;9.01;66.62
68943;DHT22;60852;52.190;4.422;2023-04-06T06:47:22;9.08;66.74
68943;DHT22;60852;52.190;4.422;2023-04-06T06:49:47;9.13;66.68
68943;DHT22;60852;52.190;4.422;2023-04-06T06:52:12;9.15;66.72
68943;DHT22;60852;52.190;4.422;2023-04-06T06:54:38;9.20;66.97
68943;DHT22;60852;52.190;4.422;2023-04-06T06:57:03;9.24;67.05
68943;DHT22;60852;52.190;4.422;2023-04-06T06:59:29;9.31;67.37
68943;DHT22;60852;52.190;4.422;2023-04-06T07:01:55;9.35;67.68
68943;DHT22;60852;52.190;4.422;2023-04-06T07:04:20;9.39;67.64
68943;DHT22;60852;52.190;4.422;2023-04-06T07:06:46;9.45;68.00
68943;DHT22;60852;52.190;4.422;2023-04-06T07:09:11;9.55;68.14
68943;DHT22;60852;52.190;4.422;2023-04-06T07:11:36;9.61;68.44
68943;DHT22;60852;52.190;4.422;2023-04-06T07:14:02;9.73;68.55
68943;DHT22;60852;52.190;4.422;2023-04-06T07:16:27;9.79;68.60
68943;DHT22;60852;52.190;4.422;2023-04-06T07:18:53;9.79;68.56
68943;DHT22;60852;52.190;4.422;2023-04-06T07:21:18;9.82;68.96
68943;DHT22;60852;52.190;4.422;2023-04-06T07:23:44;9.85;69.19
68943;DHT22;60852;52.190;4.422;2023-04-06T07:26:09;9.79;69.39
68943;DHT22;60852;52.190;4.422;2023-04-06T07:28:35;9.79;69.68
68943;DHT22;60852;52.190;4.422;2023-04-06T07:31:00;9.81;69.94
68943;DHT22;60852;52.190;4.422;2023-04-06T07:33:25;9.79;70.18
68943;DHT22;60852;52.190;4.422;2023-04-06T07:35:55;9.82;70.31
68943;DHT22;60852;52.190;4.422;2023-04-06T07:38:21;9.85;70.45
68943;DHT22;60852;52.190;4.422;2023-04-06T07:40:46;9.89;70.90
68943;DHT22;60852;52.190;4.422;2023-04-06T07:43:12;9.90;71.28
68943;DHT22;60852;52.190;4.422;2023-04-06T07:45:37;9.96;71.57
68943;DHT22;60852;52.190;4.422;2023-04-06T07:48:03;10.00;71.93
68943;DHT22;60852;52.190;4.422;2023-04-06T07:50:28;10.02;72.05
68943;DHT22;60852;52.190;4.422;2023-04-06T07:52:53;10.07;72.21
68943;DHT22;60852;52.190;4.422;2023-04-06T07:55:19;10.10;72.31
68943;DHT22;60852;52.190;4.422;2023-04-06T07:57:45;10.13;72.58
68943;DHT22;60852;52.190;4.422;2023-04-06T08:00:11;10.17;72.62
68943;DHT22;60852;52.190;4.422;2023-04-06T08:02:37;10.17;72.94
68943;DHT22;60852;52.190;4.422;2023-04-06T08:05:02;10.17;73.12
68943;DHT22;60852;52.190;4.422;2023-04-06T08:07:27;10.18;73.47
68943;DHT22;60852;52.190;4.422;2023-04-06T08:09:53;10.21;73.95
68943;DHT22;60852;52.190;4.422;2023-04-06T08:12:18;10.27;74.18
68943;DHT22;60852;52.190;4.422;2023-04-06T08:14:44;10.33;74.36
68943;DHT22;60852;52.190;4.422;2023-04-06T08:17:09;10.33;74.21
68943;DHT22;60852;52.190;4.422;2023-04-06T08:19:35;10.29;74.27
68943;DHT22;60852;52.190;4.422;2023-04-06T08:22:01;10.20;74.49
68943;DHT22;60852;52.190;4.422;2023-04-06T08:24:26;10.21;74.68
68943;DHT22;60852;52.190;4.422;2023-04-06T08:26:52;10.09;74.62
68943;DHT22;60852;52.190;4.422;2023-04-06T08:29:18;10.04;74.49
68943;DHT22;60852;52.190;4.422;2023-04-06T08:31:43;10.10;74.99
68943;DHT22;60852;52.190;4.422;2023-04-06T08:34:08;9.96;75.34
68943;DHT22;60852;52.190;4.422;2023-04-06T08:36:34;9.94;75.76
68943;DHT22;60852;52.190;4.422;2023-04-06T08:39:00;9.99;76.04
68943;DHT22;60852;52.190;4.422;2023-04-06T08:41:27;10.04;75.85
68943;DHT22;60852;52.190;4.422;2023-04-06T08:43:57;10.18;75.77
68943;DHT22;60852;52.190;4.422;2023-04-06T08:46:24;10.14;75.84
68943;DHT22;60852;52.190;4.422;2023-04-06T08:49:04;10.30;76.12
68943;DHT22;60852;52.190;4.422;2023-04-06T08:51:32;10.30;75.88
68943;DHT22;60852;52.190;4.422;2023-04-06T08:53:59;10.40;75.68
68943;DHT22;60852;52.190;4.422;2023-04-06T08:56:26;10.13;74.98
68943;DHT22;60852;52.190;4.422;2023-04-06T08:58:53;10.02;75.68
68943;DHT22;60852;52.190;4.422;2023-04-06T09:01:21;10.12;76.17
68943;DHT22;60852;52.190;4.422;2023-04-06T09:03:49;10.18;74.91
68943;DHT22;60852;52.190;4.422;2023-04-06T09:06:16;10.13;75.82
68943;DHT22;60852;52.190;4.422;2023-04-06T09:08:43;10.18;75.78
68943;DHT22;60852;52.190;4.422;2023-04-06T09:11:08;10.30;76.00
68943;DHT22;60852;52.190;4.422;2023-04-06T09:13:50;10.33;75.19
68943;DHT22;60852;52.190;4.422;2023-04-06T09:16:18;10.25;75.59
68943;DHT22;60852;52.190;4.422;2023-04-06T09:18:44;10.29;75.10
68943;DHT22;60852;52.190;4.422;2023-04-06T09:21:10;10.20;74.91
68943;DHT22;60852;52.190;4.422;2023-04-06T09:23:36;10.18;75.56
68943;DHT22;60852;52.190;4.422;2023-04-06T09:26:14;10.12;75.51
68943;DHT22;60852;52.190;4.422;2023-04-06T09:28:53;10.18;75.54
68943;DHT22;60852;52.190;4.422;2023-04-06T09:31:24;10.21;75.56
68943;DHT22;60852;52.190;4.422;2023-04-06T09:33:50;10.07;75.84
68943;DHT22;60852;52.190;4.422;2023-04-06T09:36:17;10.03;76.03
68943;DHT22;60852;52.190;4.422;2023-04-06T09:38:58;10.07;76.32
68943;DHT22;60852;52.190;4.422;2023-04-06T09:41:25;10.09;76.58
68943;DHT22;60852;52.190;4.422;2023-04-06T09:44:01;10.10;76.60
68943;DHT22;60852;52.190;4.422;2023-04-06T09:46:27;10.04;77.04
68943;DHT22;60852;52.190;4.422;2023-04-06T09:48:54;9.99;77.37
68943;DHT22;60852;52.190;4.422;2023-04-06T09:51:19;10.04;78.08
68943;DHT22;60852;52.190;4.422;2023-04-06T09:53:52;10.02;78.24
68943;DHT22;60852;52.190;4.422;2023-04-06T09:56:23;10.04;78.33
68943;DHT22;60852;52.190;4.422;2023-04-06T09:58:55;10.09;78.35
68943;DHT22;60852;52.190;4.422;2023-04-06T10:01:26;10.02;77.99
68943;DHT22;60852;52.190;4.422;2023-04-06T10:04:07;9.87;78.31
68943;DHT22;60852;52.190;4.422;2023-04-06T10:06:37;9.81;78.82
68943;DHT22;60852;52.190;4.422;2023-04-06T10:09:04;9.68;79.27
68943;DHT22;60852;52.190;4.422;2023-04-06T10:11:34;9.82;79.55
68943;DHT22;60852;52.190;4.422;2023-04-06T10:14:00;9.89;79.57
68943;DHT22;60852;52.190;4.422;2023-04-06T10:16:26;9.89;79.18
68943;DHT22;60852;52.190;4.422;2023-04-06T10:19:02;9.82;79.13
68943;DHT22;60852;52.190;4.422;2023-04-06T10:21:31;9.85;79.77
68943;DHT22;60852;52.190;4.422;2023-04-06T10:24:02;9.75;79.71
68943;DHT22;60852;52.190;4.422;2023-04-06T10:26:32;9.81;80.23
68943;DHT22;60852;52.190;4.422;2023-04-06T10:29:03;9.83;80.25
68943;DHT22;60852;52.190;4.422;2023-04-06T10:31:29;9.86;80.05
68943;DHT22;60852;52.190;4.422;2023-04-06T10:33:59;9.89;80.40
68943;DHT22;60852;52.190;4.422;2023-04-06T10:36:35;9.93;80.41
68943;DHT22;60852;52.190;4.422;2023-04-06T10:39:03;10.03;80.32
68943;DHT22;60852;52.190;4.422;2023-04-06T10:41:34;10.06;80.03
68943;DHT22;60852;52.190;4.422;2023-04-06T10:44:00;10.12;80.29
68943;DHT22;60852;52.190;4.422;2023-04-06T10:46:30;10.12;79.99
68943;DHT22;60852;52.190;4.422;2023-04-06T10:48:56;10.06;79.71
68943;DHT22;60852;52.190;4.422;2023-04-06T10:51:27;10.10;80.21
68943;DHT22;60852;52.190;4.422;2023-04-06T10:53:54;10.09;80.11
68943;DHT22;60852;52.190;4.422;2023-04-06T10:56:23;10.00;80.16
68943;DHT22;60852;52.190;4.422;2023-04-06T10:58:54;9.89;80.38
68943;DHT22;60852;52.190;4.422;2023-04-06T11:01:23;9.97;80.62
68943;DHT22;60852;52.190;4.422;2023-04-06T11:03:51;9.99;80.84
68943;DHT22;60852;52.190;4.422;2023-04-06T11:06:22;10.10;80.88
68943;DHT22;60852;52.190;4.422;2023-04-06T11:08:49;10.16;80.79
68943;DHT22;60852;52.190;4.422;2023-04-06T11:11:17;10.24;80.28
68943;DHT22;60852;52.190;4.422;2023-04-06T11:13:52;10.17;80.54
68943;DHT22;60852;52.190;4.422;2023-04-06T11:16:26;10.06;80.56
68943;DHT22;60852;52.190;4.422;2023-04-06T11:19:00;10.04;80.93
68943;DHT22;60852;52.190;4.422;2023-04-06T11:21:36;9.99;81.16
68943;DHT22;60852;52.190;4.422;2023-04-06T11:24:18;10.10;81.56
68943;DHT22;60852;52.190;4.422;2023-04-06T11:26:45;10.07;81.10
68943;DHT22;60852;52.190;4.422;2023-04-06T11:29:12;10.00;81.52
68943;DHT22;60852;52.190;4.422;2023-04-06T11:31:40;10.03;81.60
68943;DHT22;60852;52.190;4.422;2023-04-06T11:34:13;10.03;81.47
68943;DHT22;60852;52.190;4.422;2023-04-06T11:36:43;10.04;81.85
68943;DHT22;60852;52.190;4.422;2023-04-06T11:39:09;10.13;81.88
68943;DHT22;60852;52.190;4.422;2023-04-06T11:41:35;10.10;81.71
68943;DHT22;60852;52.190;4.422;2023-04-06T11:44:02;10.02;81.72
68943;DHT22;60852;52.190;4.422;2023-04-06T11:46:30;10.02;81.86
68943;DHT22;60852;52.190;4.422;2023-04-06T11:49:01;9.96;81.75
68943;DHT22;60852;52.190;4.422;2023-04-06T11:51:27;9.97;81.99
68943;DHT22;60852;52.190;4.422;2023-04-06T11:53:53;9.96;82.11
68943;DHT22;60852;52.190;4.422;2023-04-06T11:56:27;10.02;82.03
68943;DHT22;60852;52.190;4.422;2023-04-06T11:58:55;10.06;82.07
68943;DHT22;60852;52.190;4.422;2023-04-06T12:01:21;10.10;82.20
68943;DHT22;60852;52.190;4.422;2023-04-06T12:03:46;10.07;81.80
68943;DHT22;60852;52.190;4.422;2023-04-06T12:06:12;10.07;82.29
68943;DHT22;60852;52.190;4.422;2023-04-06T12:08:37;10.14;82.46
68943;DHT22;60852;52.190;4.422;2023-04-06T12:11:03;10.20;82.30
68943;DHT22;60852;52.190;4.422;2023-04-06T12:13:28;10.13;81.95
68943;DHT22;60852;52.190;4.422;2023-04-06T12:15:53;10.09;82.02
68943;DHT22;60852;52.190;4.422;2023-04-06T12:18:19;10.03;82.32
68943;DHT22;60852;52.190;4.422;2023-04-06T12:20:45;10.14;82.78
68943;DHT22;60852;52.190;4.422;2023-04-06T12:23:10;10.27;82.70
68943;DHT22;60852;52.190;4.422;2023-04-06T12:25:35;10.29;82.36
68943;DHT22;60852;52.190;4.422;2023-04-06T12:28:01;10.21;82.26
68943;DHT22;60852;52.190;4.422;2023-04-06T12:30:26;10.17;82.51
68943;DHT22;60852;52.190;4.422;2023-04-06T12:32:52;10.07;82.54
68943;DHT22;60852;52.190;4.422;2023-04-06T12:35:17;10.13;82.95
68943;DHT22;60852;52.190;4.422;2023-04-06T12:37:42;10.17;82.91
68943;DHT22;60852;52.190;4.422;2023-04-06T12:40:08;10.16;82.91
68943;DHT22;60852;52.190;4.422;2023-04-06T12:42:36;10.16;82.97
68943;DHT22;60852;52.190;4.422;2023-04-06T12:45:01;10.09;83.00
68943;DHT22;60852;52.190;4.422;2023-04-06T12:47:27;10.13;83.33
68943;DHT22;60852;52.190;4.422;2023-04-06T12:49:53;10.14;83.34
68943;DHT22;60852;52.190;4.422;2023-04-06T12:52:19;10.18;83.29
68943;DHT22;60852;52.190;4.422;2023-04-06T12:54:44;10.17;83.14
68943;DHT22;60852;52.190;4.422;2023-04-06T12:57:10;10.16;83.23
68943;DHT22;60852;52.190;4.422;2023-04-06T12:59:35;10.06;83.23
68943;DHT22;60852;52.190;4.422;2023-04-06T13:02:03;10.03;83.58
68943;DHT22;60852;52.190;4.422;2023-04-06T13:04:28;9.94;83.81
68943;DHT22;60852;52.190;4.422;2023-04-06T13:06:54;9.93;83.94
68943;DHT22;60852;52.190;4.422;2023-04-06T13:09:19;9.89;84.15
68943;DHT22;60852;52.190;4.422;2023-04-06T13:11:45;9.82;84.27
68943;DHT22;60852;52.190;4.422;2023-04-06T13:14:11;9.89;84.64
68943;DHT22;60852;52.190;4.422;2023-04-06T13:16:36;9.81;84.62
68943;DHT22;60852;52.190;4.422;2023-04-06T13:19:02;9.73;84.88
68943;DHT22;60852;52.190;4.422;2023-04-06T13:21:28;9.73;85.13
68943;DHT22;60852;52.190;4.422;2023-04-06T13:23:53;9.78;85.34
68943;DHT22;60852;52.190;4.422;2023-04-06T13:26:19;9.90;85.33
68943;DHT22;60852;52.190;4.422;2023-04-06T13:28:45;9.92;85.03
68943;DHT22;60852;52.190;4.422;2023-04-06T13:31:10;9.90;85.11
68943;DHT22;60852;52.190;4.422;2023-04-06T13:33:36;9.94;84.97
68943;DHT22;60852;52.190;4.422;2023-04-06T13:36:02;9.87;84.84
68943;DHT22;60852;52.190;4.422;2023-04-06T13:38:28;9.79;85.11
68943;DHT22;60852;52.190;4.422;2023-04-06T13:40:53;9.82;85.33
68943;DHT22;60852;52.190;4.422;2023-04-06T13:43:19;9.92;85.38
68943;DHT22;60852;52.190;4.422;2023-04-06T13:45:54;9.92;85.28
68943;DHT22;60852;52.190;4.422;2023-04-06T13:48:25;9.97;85.37
68943;DHT22;60852;52.190;4.422;2023-04-06T13:50:51;10.00;85.32
68943;DHT22;60852;52.190;4.422;2023-04-06T13:53:17;10.03;85.35
68943;DHT22;60852;52.190;4.422;2023-04-06T13:55:43;10.04;85.35
68943;DHT22;60852;52.190;4.422;2023-04-06T13:58:09;10.02;85.40
68943;DHT22;60852;52.190;4.422;2023-04-06T14:00:34;9.99;85.45
68943;DHT22;60852;52.190;4.422;2023-04-06T14:03:00;10.04;85.48
68943;DHT22;60852;52.190;4.422;2023-04-06T14:05:26;9.99;85.60
68943;DHT22;60852;52.190;4.422;2023-04-06T14:07:53;10.04;85.62
68943;DHT22;60852;52.190;4.422;2023-04-06T14:10:19;10.04;85.54
68943;DHT22;60852;52.190;4.422;2023-04-06T14:12:47;10.02;85.71
68943;DHT22;60852;52.190;4.422;2023-04-06T14:15:13;10.03;85.86
68943;DHT22;60852;52.190;4.422;2023-04-06T14:17:39;10.09;85.79
68943;DHT22;60852;52.190;4.422;2023-04-06T14:20:08;10.14;85.78
68943;DHT22;60852;52.190;4.422;2023-04-06T14:22:39;10.20;85.82
68943;DHT22;60852;52.190;4.422;2023-04-06T14:25:05;10.29;85.74
68943;DHT22;60852;52.190;4.422;2023-04-06T14:27:31;10.27;85.39
68943;DHT22;60852;52.190;4.422;2023-04-06T14:29:57;10.25;85.63
68943;DHT22;60852;52.190;4.422;2023-04-06T14:32:22;10.29;85.52
68943;DHT22;60852;52.190;4.422;2023-04-06T14:34:48;10.31;85.57
68943;DHT22;60852;52.190;4.422;2023-04-06T14:37:13;10.33;85.52
68943;DHT22;60852;52.190;4.422;2023-04-06T14:39:38;10.25;85.24
68943;DHT22;60852;52.190;4.422;2023-04-06T14:42:04;10.29;85.60
68943;DHT22;60852;52.190;4.422;2023-04-06T14:44:33;10.30;85.67
68943;DHT22;60852;52.190;4.422;2023-04-06T14:46:58;10.31;85.60
68943;DHT22;60852;52.190;4.422;2023-04-06T14:49:23;10.30;85.62
68943;DHT22;60852;52.190;4.422;2023-04-06T14:51:49;10.34;85.65
68943;DHT22;60852;52.190;4.422;2023-04-06T14:54:16;10.38;85.49
68943;DHT22;60852;52.190;4.422;2023-04-06T14:56:42;10.40;85.59
68943;DHT22;60852;52.190;4.422;2023-04-06T14:59:08;10.42;85.70
68943;DHT22;60852;52.190;4.422;2023-04-06T15:01:34;10.41;85.78
68943;DHT22;60852;52.190;4.422;2023-04-06T15:04:02;10.42;85.96
68943;DHT22;60852;52.190;4.422;2023-04-06T15:06:28;10.50;85.94
68943;DHT22;60852;52.190;4.422;2023-04-06T15:08:53;10.44;85.75
68943;DHT22;60852;52.190;4.422;2023-04-06T15:11:19;10.48;85.95
68943;DHT22;60852;52.190;4.422;2023-04-06T15:13:45;10.52;86.07
68943;DHT22;60852;52.190;4.422;2023-04-06T15:16:10;10.58;86.11
68943;DHT22;60852;52.190;4.422;2023-04-06T15:18:36;10.60;85.91
68943;DHT22;60852;52.190;4.422;2023-04-06T15:21:02;10.52;85.95
68943;DHT22;60852;52.190;4.422;2023-04-06T15:23:28;10.52;86.07
68943;DHT22;60852;52.190;4.422;2023-04-06T15:25:55;10.52;85.96
68943;DHT22;60852;52.190;4.422;2023-04-06T15:28:20;10.48;86.09
68943;DHT22;60852;52.190;4.422;2023-04-06T15:30:46;10.51;86.07
68943;DHT22;60852;52.190;4.422;2023-04-06T15:33:11;10.54;86.03
68943;DHT22;60852;52.190;4.422;2023-04-06T15:35:37;10.57;86.16